createdAt,value
2019-05-02T00:00:01.878Z,99.27
2019-05-02T00:01:01.163Z,98.69
2019-05-02T00:02:01.133Z,99.55
2019-05-02T00:03:04.391Z,98.69
2019-05-02T00:04:01.089Z,98.98
2019-05-02T00:05:01.484Z,98.88
2019-05-02T00:06:02.878Z,99.17
2019-05-02T00:07:01.026Z,98.79
2019-05-02T00:08:01.038Z,98.60
2019-05-02T00:09:04.060Z,99.17
2019-05-02T00:10:00.978Z,99.36
2019-05-02T00:11:00.945Z,99.27
2019-05-02T00:12:00.921Z,99.17
2019-05-02T00:13:01.006Z,99.17
2019-05-02T00:14:00.881Z,99.08
2019-05-02T00:15:02.124Z,99.46
2019-05-02T00:16:01.088Z,99.46
2019-05-02T00:17:00.922Z,99.17
2019-05-02T00:19:00.777Z,98.98
2019-05-02T00:20:00.878Z,98.79
2019-05-02T00:21:01.372Z,99.17
2019-05-02T00:22:00.711Z,98.79
2019-05-02T00:23:00.988Z,98.98
2019-05-02T00:24:03.023Z,98.50
2019-05-02T00:25:00.746Z,98.60
2019-05-02T00:26:00.637Z,98.79
2019-05-02T00:27:01.279Z,98.32
2019-05-02T00:28:00.585Z,98.32
2019-05-02T00:29:00.868Z,98.13
2019-05-02T00:30:00.535Z,97.74
2019-05-02T00:31:00.521Z,97.84
2019-05-02T00:32:00.490Z,97.84
2019-05-02T00:34:00.452Z,98.03
2019-05-02T00:35:00.730Z,97.93
2019-05-02T00:36:00.407Z,97.74
2019-05-02T00:37:00.385Z,98.22
2019-05-02T00:38:02.440Z,97.74
2019-05-02T00:39:00.386Z,98.50
2019-05-02T00:40:00.318Z,97.74
2019-05-02T00:41:02.256Z,97.74
2019-05-02T00:42:12.053Z,98.32
2019-05-02T00:43:00.253Z,98.50
2019-05-02T00:44:00.244Z,98.60
2019-05-02T00:45:00.318Z,98.79
2019-05-02T00:46:00.969Z,98.50
2019-05-02T00:47:00.470Z,99.17
2019-05-02T00:48:00.145Z,98.88
2019-05-02T00:49:01.888Z,99.08
2019-05-02T00:50:00.105Z,99.08
2019-05-02T00:52:01.414Z,98.98
2019-05-02T00:53:00.294Z,99.17
2019-05-02T00:54:00.028Z,99.55
2019-05-02T00:54:59.998Z,99.65
2019-05-02T00:55:59.974Z,99.36
2019-05-02T00:56:59.973Z,99.17
2019-05-02T00:57:59.932Z,98.60
2019-05-02T00:59:02.404Z,98.32
2019-05-02T00:59:59.890Z,98.60
2019-05-02T01:00:59.976Z,98.50
2019-05-02T01:02:04.810Z,98.88
2019-05-02T01:02:59.832Z,99.17
2019-05-02T01:03:59.803Z,98.32
2019-05-02T01:05:03.252Z,98.50
2019-05-02T01:06:00.012Z,98.88
2019-05-02T01:06:59.740Z,99.08
2019-05-02T01:08:01.017Z,99.17
2019-05-02T01:08:59.721Z,98.46
2019-05-02T01:09:59.824Z,98.50
2019-05-02T01:10:59.759Z,98.32
2019-05-02T01:12:03.193Z,98.60
2019-05-02T01:12:59.617Z,98.03
2019-05-02T01:13:59.594Z,97.84
2019-05-02T01:15:03.371Z,97.46
2019-05-02T01:15:59.695Z,97.93
2019-05-02T01:16:59.527Z,97.74
2019-05-02T01:18:01.084Z,97.46
2019-05-02T01:18:59.793Z,98.22
2019-05-02T01:19:59.460Z,97.93
2019-05-02T01:21:02.709Z,98.32
2019-05-02T01:21:59.415Z,98.60
2019-05-02T01:22:59.510Z,99.27
2019-05-02T01:24:03.144Z,99.17
2019-05-02T01:24:59.350Z,98.88
2019-05-02T01:25:59.638Z,98.98
2019-05-02T01:26:59.800Z,99.55
2019-05-02T01:27:59.399Z,99.55
2019-05-02T01:28:59.264Z,99.74
2019-05-02T01:30:01.542Z,99.55
2019-05-02T01:30:59.424Z,99.99
2019-05-02T01:33:01.473Z,99.65
2019-05-02T01:33:59.462Z,99.99
2019-05-02T01:34:59.135Z,99.99
2019-05-02T01:36:59.110Z,99.99
2019-05-02T01:39:02.934Z,99.99
2019-05-02T01:39:59.189Z,99.99
2019-05-02T01:40:59.257Z,99.99
2019-05-02T01:41:59.882Z,99.99
2019-05-02T01:44:00.073Z,99.99
2019-05-02T01:44:58.921Z,99.99
2019-05-02T01:45:59.107Z,99.99
2019-05-02T01:47:00.054Z,99.99
2019-05-02T01:47:59.158Z,99.99
2019-05-02T01:48:58.850Z,99.99
2019-05-02T01:49:59.260Z,99.99
2019-05-02T01:50:58.802Z,99.99
2019-05-02T01:52:00.022Z,99.99
2019-05-02T01:53:00.202Z,99.99
2019-05-02T01:53:59.029Z,99.99
2019-05-02T01:54:58.767Z,99.99
2019-05-02T01:55:59.352Z,99.99
2019-05-02T01:56:58.781Z,99.99
2019-05-02T01:57:58.640Z,99.99
2019-05-02T01:58:58.941Z,99.99
2019-05-02T01:59:58.856Z,99.98
2019-05-02T02:00:58.577Z,99.99
2019-05-02T02:01:59.185Z,99.88
2019-05-02T02:02:58.538Z,99.88
2019-05-02T02:03:58.522Z,99.98
2019-05-02T02:04:58.496Z,99.98
2019-05-02T02:06:02.826Z,99.79
2019-05-02T02:06:58.454Z,99.99
2019-05-02T02:07:58.433Z,99.99
2019-05-02T02:08:58.407Z,99.99
2019-05-02T02:09:58.388Z,99.99
2019-05-02T02:10:58.442Z,99.99
2019-05-02T02:11:58.646Z,99.99
2019-05-02T02:13:04.618Z,99.99
2019-05-02T02:13:58.306Z,99.99
2019-05-02T02:14:58.290Z,99.99
2019-05-02T02:16:00.265Z,99.99
2019-05-02T02:16:58.288Z,99.99
2019-05-02T02:17:58.554Z,99.99
2019-05-02T02:18:59.129Z,99.99
2019-05-02T02:19:58.173Z,99.99
2019-05-02T02:20:58.160Z,99.99
2019-05-02T02:22:02.938Z,99.99
2019-05-02T02:22:58.112Z,99.99
2019-05-02T02:23:58.333Z,99.99
2019-05-02T02:25:00.959Z,99.99
2019-05-02T02:25:58.066Z,99.99
2019-05-02T02:26:58.045Z,99.99
2019-05-02T02:27:59.678Z,99.99
2019-05-02T02:28:58.322Z,99.99
2019-05-02T02:29:58.017Z,99.99
2019-05-02T02:31:04.925Z,99.99
2019-05-02T02:31:57.910Z,99.99
2019-05-02T02:33:00.572Z,99.99
2019-05-02T02:33:57.878Z,99.99
2019-05-02T02:35:57.827Z,99.99
2019-05-02T02:36:57.807Z,99.99
2019-05-02T02:38:57.776Z,99.99
2019-05-02T02:39:57.747Z,99.99
2019-05-02T02:41:57.702Z,99.99
2019-05-02T02:42:57.834Z,99.99
2019-05-02T02:44:00.557Z,99.99
2019-05-02T02:44:57.937Z,99.99
2019-05-02T02:45:59.740Z,99.99
2019-05-02T02:46:57.593Z,99.99
2019-05-02T02:48:00.036Z,99.99
2019-05-02T02:48:57.555Z,99.99
2019-05-02T02:50:02.280Z,99.99
2019-05-02T02:50:57.519Z,99.99
2019-05-02T02:52:04.258Z,99.99
2019-05-02T02:52:57.460Z,99.99
2019-05-02T02:54:03.896Z,99.99
2019-05-02T02:54:57.616Z,99.99
2019-05-02T02:56:57.386Z,99.99
2019-05-02T02:57:58.322Z,99.99
2019-05-02T02:58:57.630Z,99.99
2019-05-02T03:00:06.667Z,99.99
2019-05-02T03:00:57.287Z,99.99
2019-05-02T03:02:09.161Z,99.99
2019-05-02T03:02:57.251Z,99.99
2019-05-02T03:04:01.881Z,99.99
2019-05-02T03:04:57.201Z,99.99
2019-05-02T03:06:57.160Z,99.99
2019-05-02T03:07:59.723Z,99.99
2019-05-02T03:08:57.111Z,99.99
2019-05-02T03:09:59.782Z,99.99
2019-05-02T03:12:02.082Z,99.99
2019-05-02T03:12:57.326Z,99.99
2019-05-02T03:14:06.073Z,99.99
2019-05-02T03:14:56.983Z,99.99
2019-05-02T03:16:00.344Z,99.99
2019-05-02T03:16:57.005Z,99.99
2019-05-02T03:17:59.871Z,99.99
2019-05-02T03:18:57.178Z,99.99
2019-05-02T03:20:01.577Z,99.99
2019-05-02T03:20:56.894Z,99.99
2019-05-02T03:22:04.323Z,99.99
2019-05-02T03:22:56.820Z,99.99
2019-05-02T03:24:03.304Z,99.99
2019-05-02T03:24:56.774Z,99.99
2019-05-02T03:25:56.749Z,99.99
2019-05-02T03:26:58.397Z,99.99
2019-05-02T03:27:56.702Z,99.99
2019-05-02T03:28:58.679Z,99.99
2019-05-02T03:29:56.661Z,99.99
2019-05-02T03:30:56.952Z,99.99
2019-05-02T03:32:11.481Z,99.99
2019-05-02T03:33:05.849Z,99.99
2019-05-02T03:34:00.490Z,99.99
2019-05-02T03:34:56.757Z,99.99
2019-05-02T03:35:56.534Z,99.99
2019-05-02T03:37:03.175Z,99.99
2019-05-02T03:37:56.516Z,99.99
2019-05-02T03:38:56.487Z,99.99
2019-05-02T03:39:58.338Z,99.99
2019-05-02T03:40:56.434Z,99.99
2019-05-02T03:42:02.852Z,99.99
2019-05-02T03:42:56.692Z,99.99
2019-05-02T03:44:10.662Z,99.99
2019-05-02T03:45:03.852Z,99.99
2019-05-02T03:45:56.319Z,99.99
2019-05-02T03:47:02.033Z,99.99
2019-05-02T03:47:56.276Z,99.99
2019-05-02T03:49:06.231Z,99.99
2019-05-02T03:50:56.409Z,99.99
2019-05-02T03:52:56.189Z,99.99
2019-05-02T03:54:05.660Z,99.99
2019-05-02T03:56:56.126Z,99.99
2019-05-02T03:57:56.057Z,99.99
2019-05-02T03:58:58.220Z,99.99
2019-05-02T03:59:56.031Z,99.99
2019-05-02T04:01:01.694Z,99.99
2019-05-02T04:01:56.025Z,99.99
2019-05-02T04:03:00.311Z,99.99
2019-05-02T04:03:56.023Z,99.99
2019-05-02T04:05:00.715Z,99.99
2019-05-02T04:05:55.883Z,99.99
2019-05-02T04:07:01.326Z,99.99
2019-05-02T04:07:55.844Z,99.99
2019-05-02T04:08:59.842Z,99.99
2019-05-02T04:09:56.098Z,99.99
2019-05-02T04:10:59.401Z,99.99
2019-05-02T04:11:55.787Z,99.99
2019-05-02T04:13:55.722Z,99.99
2019-05-02T04:14:57.180Z,99.99
2019-05-02T04:15:55.673Z,99.99
2019-05-02T04:16:57.368Z,99.99
2019-05-02T04:17:55.629Z,99.99
2019-05-02T04:18:58.037Z,99.99
2019-05-02T04:19:55.625Z,99.99
2019-05-02T04:20:55.563Z,99.99
2019-05-02T04:22:01.902Z,99.99
2019-05-02T04:22:55.564Z,99.99
2019-05-02T04:24:07.670Z,99.99
2019-05-02T04:24:56.774Z,99.99
2019-05-02T04:25:55.477Z,99.99
2019-05-02T04:26:56.563Z,99.99
2019-05-02T04:27:55.939Z,99.99
2019-05-02T04:28:55.510Z,99.99
2019-05-02T04:29:55.513Z,99.99
2019-05-02T04:30:55.760Z,99.99
2019-05-02T04:31:55.330Z,99.99
2019-05-02T04:32:56.166Z,99.99
2019-05-02T04:33:55.283Z,99.99
2019-05-02T04:34:57.998Z,99.99
2019-05-02T04:35:59.226Z,99.99
2019-05-02T04:37:03.503Z,99.99
2019-05-02T04:37:57.538Z,99.99
2019-05-02T04:39:59.126Z,99.99
2019-05-02T04:40:55.136Z,99.99
2019-05-02T04:41:55.126Z,99.99
2019-05-02T04:43:02.069Z,99.99
2019-05-02T04:43:58.032Z,99.99
2019-05-02T04:45:13.717Z,99.99
2019-05-02T04:45:57.463Z,99.99
2019-05-02T04:48:03.050Z,99.99
2019-05-02T04:48:54.976Z,99.99
2019-05-02T04:49:54.960Z,99.99
2019-05-02T04:51:02.059Z,99.99
2019-05-02T04:52:01.484Z,99.99
2019-05-02T04:52:54.890Z,99.99
2019-05-02T04:53:54.862Z,99.99
2019-05-02T04:55:08.201Z,99.99
2019-05-02T04:56:01.639Z,99.99
2019-05-02T04:56:55.447Z,99.99
2019-05-02T04:57:54.810Z,99.99
2019-05-02T04:58:54.756Z,99.99
2019-05-02T05:00:05.073Z,99.99
2019-05-02T05:01:01.016Z,99.99
2019-05-02T05:01:58.508Z,99.99
2019-05-02T05:02:54.680Z,99.99
2019-05-02T05:03:58.602Z,99.99
2019-05-02T05:06:01.604Z,99.99
2019-05-02T05:07:00.098Z,99.99
2019-05-02T05:08:54.846Z,99.99
2019-05-02T05:09:58.232Z,99.99
2019-05-02T05:10:54.512Z,99.99
2019-05-02T05:11:59.025Z,99.99
2019-05-02T05:12:54.474Z,99.99
2019-05-02T05:13:57.574Z,99.99
2019-05-02T05:14:55.083Z,99.99
2019-05-02T05:15:54.395Z,99.99
2019-05-02T05:16:56.116Z,99.99
2019-05-02T05:18:54.349Z,99.99
2019-05-02T05:19:54.418Z,99.99
2019-05-02T05:21:58.870Z,99.99
2019-05-02T05:22:54.345Z,99.99
2019-05-02T05:23:59.299Z,99.99
2019-05-02T05:24:54.272Z,99.99
2019-05-02T05:25:55.804Z,99.99
2019-05-02T05:26:54.192Z,99.99
2019-05-02T05:27:58.770Z,99.99
2019-05-02T05:28:54.463Z,99.99
2019-05-02T05:29:59.483Z,99.99
2019-05-02T05:30:54.166Z,99.99
2019-05-02T05:31:55.169Z,99.99
2019-05-02T05:32:54.055Z,99.99
2019-05-02T05:33:54.043Z,99.99
2019-05-02T05:34:54.680Z,99.99
2019-05-02T05:35:54.726Z,99.99
2019-05-02T05:37:54.463Z,99.99
2019-05-02T05:39:54.300Z,99.99
2019-05-02T05:40:54.223Z,99.99
2019-05-02T05:43:54.180Z,99.99
2019-05-02T05:44:53.816Z,99.99
2019-05-02T05:46:01.319Z,99.99
2019-05-02T05:46:53.770Z,99.99
2019-05-02T05:48:53.748Z,99.99
2019-05-02T05:49:57.650Z,99.99
2019-05-02T05:50:53.986Z,99.99
2019-05-02T05:51:54.434Z,99.99
2019-05-02T05:52:53.661Z,99.99
2019-05-02T05:53:58.983Z,99.99
2019-05-02T05:54:53.609Z,99.99
2019-05-02T05:55:58.349Z,99.99
2019-05-02T05:56:53.967Z,99.99
2019-05-02T05:57:59.607Z,99.99
2019-05-02T05:58:53.525Z,99.99
2019-05-02T05:59:53.507Z,99.99
2019-05-02T06:00:55.623Z,99.99
2019-05-02T06:01:53.470Z,99.99
2019-05-02T06:02:56.547Z,99.99
2019-05-02T06:03:53.424Z,99.99
2019-05-02T06:04:55.215Z,99.99
2019-05-02T06:05:53.410Z,99.99
2019-05-02T06:06:54.077Z,99.99
2019-05-02T06:07:53.423Z,99.99
2019-05-02T06:09:53.294Z,99.99
2019-05-02T06:10:53.563Z,99.99
2019-05-02T06:11:55.420Z,99.99
2019-05-02T06:12:53.378Z,99.99
2019-05-02T06:13:53.216Z,99.99
2019-05-02T06:14:56.408Z,99.99
2019-05-02T06:16:02.156Z,99.99
2019-05-02T06:16:53.321Z,99.99
2019-05-02T06:17:53.401Z,99.99
2019-05-02T06:18:53.108Z,99.99
2019-05-02T06:19:55.310Z,99.99
2019-05-02T06:20:53.076Z,99.99
2019-05-02T06:21:53.055Z,99.99
2019-05-02T06:22:55.030Z,99.99
2019-05-02T06:23:53.025Z,99.99
2019-05-02T06:24:52.988Z,99.99
2019-05-02T06:25:53.013Z,99.99
2019-05-02T06:26:52.943Z,99.99
2019-05-02T06:28:53.211Z,99.99
2019-05-02T06:29:56.178Z,99.99
2019-05-02T06:30:52.981Z,99.99
2019-05-02T06:31:52.963Z,99.99
2019-05-02T06:33:52.921Z,99.99
2019-05-02T06:34:53.277Z,99.99
2019-05-02T06:37:52.720Z,99.99
2019-05-02T06:38:56.560Z,99.99
2019-05-02T06:39:52.725Z,99.99
2019-05-02T06:40:52.961Z,99.99
2019-05-02T06:41:57.511Z,99.99
2019-05-02T06:42:52.631Z,99.99
2019-05-02T06:43:52.885Z,99.99
2019-05-02T06:45:52.545Z,99.99
2019-05-02T06:46:52.547Z,99.99
2019-05-02T06:47:52.762Z,99.99
2019-05-02T06:48:53.671Z,99.99
2019-05-02T06:49:56.085Z,99.99
2019-05-02T06:51:56.256Z,99.99
2019-05-02T06:52:52.403Z,99.99
2019-05-02T06:53:52.399Z,99.99
2019-05-02T06:54:54.109Z,99.99
2019-05-02T06:55:52.347Z,99.99
2019-05-02T06:56:52.338Z,99.99
2019-05-02T06:57:57.118Z,99.99
2019-05-02T06:58:52.312Z,99.99
2019-05-02T06:59:54.651Z,99.99
2019-05-02T07:00:58.152Z,99.99
2019-05-02T07:01:56.912Z,99.99
2019-05-02T07:02:52.220Z,99.99
2019-05-02T07:04:54.801Z,99.99
2019-05-02T07:05:52.355Z,99.99
2019-05-02T07:06:58.780Z,99.99
2019-05-02T07:07:52.637Z,99.99
2019-05-02T07:08:52.121Z,99.99
2019-05-02T07:09:52.071Z,99.99
2019-05-02T07:10:55.950Z,99.99
2019-05-02T07:11:57.323Z,99.99
2019-05-02T07:13:02.237Z,99.99
2019-05-02T07:13:52.017Z,99.99
2019-05-02T07:14:56.095Z,99.99
2019-05-02T07:16:54.422Z,99.99
2019-05-02T07:17:51.928Z,99.99
2019-05-02T07:19:51.896Z,99.99
2019-05-02T07:21:53.123Z,99.99
2019-05-02T07:22:51.815Z,99.99
2019-05-02T07:23:53.747Z,99.99
2019-05-02T07:24:51.769Z,99.99
2019-05-02T07:25:51.772Z,99.99
2019-05-02T07:26:52.102Z,99.99
2019-05-02T07:28:52.007Z,99.99
2019-05-02T07:29:52.197Z,99.99
2019-05-02T07:30:54.480Z,99.99
2019-05-02T07:31:53.523Z,99.99
2019-05-02T07:32:51.630Z,99.99
2019-05-02T07:33:51.828Z,99.99
2019-05-02T07:34:51.940Z,99.99
2019-05-02T07:35:55.278Z,99.99
2019-05-02T07:36:52.626Z,99.99
2019-05-02T07:37:52.019Z,99.99
2019-05-02T07:38:51.524Z,99.99
2019-05-02T07:39:51.487Z,99.99
2019-05-02T07:40:53.114Z,99.99
2019-05-02T07:41:51.465Z,99.99
2019-05-02T07:42:51.421Z,99.99
2019-05-02T07:43:52.122Z,99.99
2019-05-02T07:44:51.438Z,99.99
2019-05-02T07:45:51.366Z,99.99
2019-05-02T07:46:52.369Z,99.99
2019-05-02T07:47:51.362Z,99.99
2019-05-02T07:48:54.506Z,99.99
2019-05-02T07:49:51.709Z,99.99
2019-05-02T07:50:51.607Z,99.99
2019-05-02T07:53:51.216Z,99.99
2019-05-02T07:54:51.392Z,99.99
2019-05-02T07:55:51.179Z,99.99
2019-05-02T07:56:53.345Z,99.99
2019-05-02T07:57:51.134Z,99.99
2019-05-02T07:58:51.413Z,99.99
2019-05-02T08:00:51.077Z,99.99
2019-05-02T08:01:51.075Z,99.99
2019-05-02T08:02:51.236Z,99.99
2019-05-02T08:03:51.015Z,99.99
2019-05-02T08:04:52.585Z,99.99
2019-05-02T08:05:54.484Z,99.99
2019-05-02T08:06:50.962Z,99.99
2019-05-02T08:07:53.417Z,99.99
2019-05-02T08:08:51.127Z,99.99
2019-05-02T08:09:51.505Z,99.99
2019-05-02T08:10:53.349Z,99.99
2019-05-02T08:11:50.862Z,99.99
2019-05-02T08:12:51.311Z,99.99
2019-05-02T08:13:55.641Z,99.99
2019-05-02T08:14:51.097Z,99.99
2019-05-02T08:15:52.378Z,99.99
2019-05-02T08:17:53.697Z,99.99
2019-05-02T08:18:50.999Z,99.99
2019-05-02T08:19:50.857Z,99.99
2019-05-02T08:20:55.467Z,99.99
2019-05-02T08:22:50.835Z,99.99
2019-05-02T08:24:51.915Z,99.99
2019-05-02T08:25:50.702Z,99.99
2019-05-02T08:26:53.529Z,99.99
2019-05-02T08:27:50.555Z,99.99
2019-05-02T08:28:51.973Z,99.99
2019-05-02T08:29:51.298Z,99.99
2019-05-02T08:30:50.865Z,99.99
2019-05-02T08:31:54.038Z,99.99
2019-05-02T08:32:50.508Z,99.99
2019-05-02T08:33:50.445Z,99.99
2019-05-02T08:34:51.970Z,99.99
2019-05-02T08:35:50.596Z,99.99
2019-05-02T08:36:50.392Z,99.99
2019-05-02T08:37:50.724Z,99.99
2019-05-02T08:38:53.583Z,99.99
2019-05-02T08:39:52.319Z,99.99
2019-05-02T08:40:51.356Z,99.99
2019-05-02T08:41:56.254Z,99.99
2019-05-02T08:42:50.736Z,99.99
2019-05-02T08:43:50.375Z,99.99
2019-05-02T08:44:51.614Z,99.99
2019-05-02T08:45:50.713Z,99.99
2019-05-02T08:46:51.354Z,99.99
2019-05-02T08:47:50.208Z,99.99
2019-05-02T08:48:50.764Z,99.99
2019-05-02T08:49:54.898Z,99.99
2019-05-02T08:50:50.136Z,99.99
2019-05-02T08:51:50.275Z,99.99
2019-05-02T08:52:50.380Z,99.99
2019-05-02T08:53:52.013Z,99.99
2019-05-02T08:54:50.107Z,99.99
2019-05-02T08:55:50.073Z,99.99
2019-05-02T08:56:53.452Z,99.99
2019-05-02T08:57:50.002Z,99.99
2019-05-02T08:58:51.114Z,99.99
2019-05-02T08:59:50.084Z,99.99
2019-05-02T09:00:49.995Z,99.99
2019-05-02T09:01:51.375Z,99.99
2019-05-02T09:02:49.911Z,99.99
2019-05-02T09:03:55.332Z,99.99
2019-05-02T09:04:58.183Z,99.99
2019-05-02T09:06:53.118Z,99.99
2019-05-02T09:07:49.788Z,99.99
2019-05-02T09:09:49.868Z,99.99
2019-05-02T09:10:50.055Z,99.99
2019-05-02T09:12:03.307Z,99.99
2019-05-02T09:12:52.091Z,99.99
2019-05-02T09:13:50.211Z,99.99
2019-05-02T09:14:49.655Z,99.99
2019-05-02T09:15:52.009Z,99.99
2019-05-02T09:16:49.633Z,99.99
2019-05-02T09:17:53.036Z,99.99
2019-05-02T09:18:51.812Z,99.99
2019-05-02T09:20:00.288Z,99.99
2019-05-02T09:20:52.637Z,99.99
2019-05-02T09:23:51.710Z,99.99
2019-05-02T09:24:49.503Z,99.99
2019-05-02T09:25:49.435Z,99.99
2019-05-02T09:26:49.475Z,99.99
2019-05-02T09:27:49.914Z,99.99
2019-05-02T09:28:51.674Z,99.99
2019-05-02T09:29:49.373Z,99.99
2019-05-02T09:30:49.359Z,99.99
2019-05-02T09:31:49.337Z,99.99
2019-05-02T09:32:52.219Z,99.99
2019-05-02T09:33:49.283Z,99.99
2019-05-02T09:35:49.364Z,99.99
2019-05-02T09:36:49.501Z,99.99
2019-05-02T09:37:49.397Z,99.99
2019-05-02T09:39:49.324Z,99.99
2019-05-02T09:40:54.590Z,99.99
2019-05-02T09:41:49.407Z,99.99
2019-05-02T09:42:53.271Z,99.99
2019-05-02T09:44:55.396Z,99.99
2019-05-02T09:45:49.059Z,99.99
2019-05-02T09:46:53.100Z,99.99
2019-05-02T09:47:59.707Z,99.99
2019-05-02T09:48:48.979Z,99.99
2019-05-02T09:49:50.441Z,99.99
2019-05-02T09:50:48.928Z,99.99
2019-05-02T09:52:48.885Z,99.99
2019-05-02T09:53:48.947Z,99.99
2019-05-02T09:54:49.182Z,99.99
2019-05-02T09:55:55.012Z,99.99
2019-05-02T09:56:52.363Z,99.99
2019-05-02T09:57:48.783Z,99.99
2019-05-02T09:58:49.379Z,99.99
2019-05-02T09:59:50.643Z,99.99
2019-05-02T10:00:48.806Z,99.99
2019-05-02T10:01:48.957Z,99.99
2019-05-02T10:02:48.760Z,99.99
2019-05-02T10:03:48.699Z,99.99
2019-05-02T10:04:48.747Z,99.99
2019-05-02T10:05:48.740Z,99.99
2019-05-02T10:06:48.778Z,99.99
2019-05-02T10:07:48.779Z,99.99
2019-05-02T10:08:49.012Z,99.99
2019-05-02T10:09:48.560Z,99.99
2019-05-02T10:10:48.612Z,99.99
2019-05-02T10:11:48.550Z,99.99
2019-05-02T10:12:48.508Z,99.99
2019-05-02T10:13:48.677Z,99.99
2019-05-02T10:14:48.487Z,99.99
2019-05-02T10:15:48.927Z,99.99
2019-05-02T10:18:48.538Z,99.99
2019-05-02T10:19:49.244Z,99.99
2019-05-02T10:20:48.361Z,99.99
2019-05-02T10:22:48.633Z,99.99
2019-05-02T10:23:51.760Z,99.99
2019-05-02T10:24:48.269Z,99.99
2019-05-02T10:25:48.664Z,99.99
2019-05-02T10:26:48.392Z,99.99
2019-05-02T10:27:48.215Z,99.99
2019-05-02T10:28:50.534Z,99.99
2019-05-02T10:29:48.213Z,99.99
2019-05-02T10:30:52.750Z,99.99
2019-05-02T10:31:48.144Z,99.99
2019-05-02T10:32:55.560Z,99.99
2019-05-02T10:33:48.150Z,99.99
2019-05-02T10:34:53.130Z,99.99
2019-05-02T10:35:48.302Z,99.99
2019-05-02T10:36:51.943Z,99.99
2019-05-02T10:37:48.106Z,99.99
2019-05-02T10:38:48.976Z,99.99
2019-05-02T10:39:48.094Z,99.99
2019-05-02T10:40:48.485Z,99.99
2019-05-02T10:41:48.108Z,99.99
2019-05-02T10:43:52.022Z,99.99
2019-05-02T10:44:47.894Z,99.99
2019-05-02T10:45:52.888Z,99.99
2019-05-02T10:46:48.291Z,99.99
2019-05-02T10:47:47.855Z,99.99
2019-05-02T10:48:47.835Z,99.99
2019-05-02T10:49:47.961Z,99.99
2019-05-02T10:50:47.807Z,99.99
2019-05-02T10:51:51.046Z,99.99
2019-05-02T10:52:48.132Z,99.99
2019-05-02T10:53:54.777Z,99.99
2019-05-02T10:54:53.175Z,99.99
2019-05-02T11:00:47.617Z,99.99
2019-05-02T11:01:47.651Z,99.99
2019-05-02T11:02:47.562Z,99.99
2019-05-02T11:03:47.663Z,99.99
2019-05-02T11:04:47.565Z,99.99
2019-05-02T11:05:47.849Z,99.99
2019-05-02T11:06:47.784Z,99.99
2019-05-02T11:07:47.483Z,99.99
2019-05-02T11:08:47.556Z,99.99
2019-05-02T11:09:47.753Z,99.99
2019-05-02T11:10:47.953Z,99.99
2019-05-02T11:11:47.802Z,99.99
2019-05-02T11:12:47.665Z,99.99
2019-05-02T11:13:48.157Z,99.99
2019-05-02T11:14:47.532Z,99.99
2019-05-02T11:15:47.420Z,99.99
2019-05-02T11:16:47.361Z,99.99
2019-05-02T11:17:48.380Z,99.99
2019-05-02T11:20:47.316Z,99.99
2019-05-02T11:21:56.422Z,99.99
2019-05-02T11:25:47.140Z,99.99
2019-05-02T11:26:47.519Z,99.99
2019-05-02T11:28:47.565Z,99.99
2019-05-02T11:29:47.190Z,99.99
2019-05-02T11:30:47.405Z,99.99
2019-05-02T11:31:47.049Z,99.99
2019-05-02T11:32:47.047Z,99.99
2019-05-02T11:33:47.277Z,99.90
2019-05-02T11:34:47.010Z,99.99
2019-05-02T11:46:01.533Z,99.99
2019-05-02T11:46:47.173Z,99.99
2019-05-02T11:47:47.002Z,99.99
2019-05-02T11:48:56.357Z,99.71
2019-05-02T11:49:51.297Z,99.99
2019-05-02T11:50:46.763Z,99.99
2019-05-02T11:52:47.055Z,99.99
2019-05-02T11:53:46.711Z,99.99
2019-05-02T11:54:48.433Z,99.04
2019-05-02T11:55:46.698Z,99.04
2019-05-02T11:56:51.335Z,98.47
2019-05-02T11:57:46.712Z,98.85
2019-05-02T11:58:48.405Z,98.85
2019-05-02T12:00:49.663Z,98.33
2019-05-02T12:02:49.136Z,97.66
2019-05-02T12:03:46.650Z,97.66
2019-05-02T12:04:47.395Z,97.18
2019-05-02T12:05:46.544Z,97.18
2019-05-02T12:06:50.071Z,97.08
2019-05-02T12:08:49.420Z,97.08
2019-05-02T12:09:55.452Z,97.18
2019-05-02T12:11:47.434Z,95.61
2019-05-02T12:12:46.431Z,95.70
2019-05-02T12:14:46.442Z,96.32
2019-05-02T12:15:46.419Z,97.18
2019-05-02T12:17:46.324Z,97.08
2019-05-02T12:18:46.344Z,97.99
2019-05-02T12:19:46.309Z,97.99
2019-05-02T12:20:46.388Z,98.09
2019-05-02T12:21:46.267Z,98.66
2019-05-02T12:22:47.096Z,98.85
2019-05-02T12:23:47.932Z,98.28
2019-05-02T12:24:48.560Z,98.66
2019-05-02T12:25:46.269Z,99.04
2019-05-02T12:26:46.618Z,98.75
2019-05-02T12:27:46.256Z,99.24
2019-05-02T12:28:46.486Z,98.28
2019-05-02T12:29:50.159Z,98.04
2019-05-02T12:30:46.140Z,97.42
2019-05-02T12:31:47.179Z,95.61
2019-05-02T12:32:46.457Z,94.31
2019-05-02T12:33:46.129Z,93.02
2019-05-02T12:34:46.179Z,91.14
2019-05-02T12:36:46.109Z,89.76
2019-05-02T12:37:47.016Z,90.39
2019-05-02T12:39:45.995Z,92.63
2019-05-02T12:40:46.099Z,93.07
2019-05-02T12:41:46.339Z,93.40
2019-05-02T12:42:46.535Z,93.30
2019-05-02T12:43:46.135Z,94.07
2019-05-02T12:44:46.097Z,95.03
2019-05-02T12:46:45.948Z,95.41
2019-05-02T12:47:45.881Z,94.93
2019-05-02T12:48:46.166Z,95.03
2019-05-02T12:49:45.945Z,94.02
2019-05-02T12:50:45.971Z,92.73
2019-05-02T12:51:45.847Z,91.43
2019-05-02T12:52:45.817Z,90.47
2019-05-02T12:53:45.799Z,90.33
2019-05-02T12:54:45.811Z,91.00
2019-05-02T12:55:46.323Z,91.00
2019-05-02T12:56:45.916Z,90.53
2019-05-02T12:58:45.731Z,90.43
2019-05-02T12:59:45.999Z,90.62
2019-05-02T13:01:46.003Z,91.34
2019-05-02T13:02:45.678Z,91.34
2019-05-02T13:03:45.659Z,90.77
2019-05-02T13:04:45.736Z,91.20
2019-05-02T13:06:46.748Z,92.44
2019-05-02T13:07:50.414Z,92.63
2019-05-02T13:08:45.653Z,93.21
2019-05-02T13:09:45.595Z,93.02
2019-05-02T13:11:52.369Z,91.82
2019-05-02T13:12:45.659Z,91.72
2019-05-02T13:15:45.954Z,91.29
2019-05-02T13:16:45.766Z,91.00
2019-05-02T13:17:48.809Z,90.53
2019-05-02T13:18:46.805Z,89.86
2019-05-02T13:20:45.659Z,89.18
2019-05-02T13:21:50.244Z,89.32
2019-05-02T13:22:45.792Z,88.37
2019-05-02T13:23:46.780Z,88.75
2019-05-02T13:25:45.405Z,89.52
2019-05-02T13:26:45.332Z,90.00
2019-05-02T13:27:48.113Z,90.58
2019-05-02T13:28:46.226Z,90.48
2019-05-02T13:29:45.612Z,90.44
2019-05-02T13:30:46.689Z,90.77
2019-05-02T13:31:45.268Z,91.20
2019-05-02T13:32:48.198Z,91.39
2019-05-02T13:33:45.254Z,91.39
2019-05-02T13:35:46.307Z,91.11
2019-05-02T13:36:45.444Z,91.30
2019-05-02T13:37:46.002Z,91.58
2019-05-02T13:38:45.168Z,92.16
2019-05-02T13:39:45.544Z,91.87
2019-05-02T13:41:45.138Z,91.77
2019-05-02T13:42:45.859Z,90.72
2019-05-02T13:43:45.316Z,91.77
2019-05-02T13:44:46.051Z,91.77
2019-05-02T13:46:46.487Z,91.58
2019-05-02T13:49:54.107Z,92.21
2019-05-02T13:50:45.370Z,91.30
2019-05-02T13:51:45.087Z,92.73
2019-05-02T13:52:53.258Z,92.73
2019-05-02T13:54:44.938Z,93.21
2019-05-02T13:55:45.602Z,93.21
2019-05-02T13:56:45.175Z,93.45
2019-05-02T13:57:46.903Z,93.79
2019-05-02T13:58:45.184Z,93.79
2019-05-02T13:59:45.078Z,94.45
2019-05-02T14:00:44.826Z,94.60
2019-05-02T14:01:44.815Z,95.36
2019-05-02T14:03:44.853Z,96.32
2019-05-02T14:04:45.315Z,96.99
2019-05-02T14:05:49.287Z,97.28
2019-05-02T14:06:44.736Z,97.95
2019-05-02T14:07:48.198Z,98.04
2019-05-02T14:08:44.758Z,98.14
2019-05-02T14:09:44.678Z,98.95
2019-05-02T14:11:44.754Z,98.57
2019-05-02T14:12:44.942Z,98.33
2019-05-02T14:13:44.637Z,98.52
2019-05-02T14:14:44.707Z,97.95
2019-05-02T14:15:44.580Z,97.66
2019-05-02T14:16:44.586Z,97.95
2019-05-02T14:17:44.836Z,98.04
2019-05-02T14:18:44.524Z,97.66
2019-05-02T14:19:44.833Z,98.71
2019-05-02T14:22:44.757Z,98.71
2019-05-02T14:24:17.143Z,98.47
2019-05-02T14:25:46.860Z,99.29
2019-05-02T14:28:44.413Z,99.57
2019-05-02T14:29:44.495Z,99.38
2019-05-02T14:30:46.362Z,99.67
2019-05-02T14:31:44.334Z,99.99
2019-05-02T14:32:44.619Z,99.99
2019-05-02T14:33:44.309Z,99.52
2019-05-02T14:34:44.298Z,99.99
2019-05-02T14:35:44.619Z,99.99
2019-05-02T14:38:44.276Z,99.99
2019-05-02T14:39:44.714Z,99.99
2019-05-02T14:40:44.184Z,99.99
2019-05-02T14:41:44.618Z,99.99
2019-05-02T14:42:44.325Z,99.99
2019-05-02T14:43:46.858Z,99.99
2019-05-02T14:45:04.193Z,99.99